createdAt,value
2019-01-23T00:01:00.159Z,51.93
2019-01-23T00:03:30.830Z,58.77
2019-01-23T00:06:02.967Z,59.60
2019-01-23T00:08:33.412Z,57.07
2019-01-23T00:11:04.149Z,59.13
2019-01-23T00:13:35.088Z,80.47
2019-01-23T00:16:08.979Z,63.50
2019-01-23T00:18:39.478Z,59.13
2019-01-23T00:21:10.348Z,59.83
2019-01-23T00:23:42.697Z,55.93
2019-01-23T00:26:15.596Z,56.30
2019-01-23T00:28:49.832Z,64.07
2019-01-23T00:31:20.626Z,54.50
2019-01-23T00:33:51.839Z,98.33
2019-01-23T00:36:22.239Z,58.47
2019-01-23T00:38:53.068Z,59.83
2019-01-23T00:41:23.422Z,53.20
2019-01-23T00:43:54.085Z,56.17
2019-01-23T00:46:25.251Z,55.53
2019-01-23T00:48:55.689Z,65.17
2019-01-23T00:51:26.132Z,61.47
2019-01-23T00:53:56.782Z,54.10
2019-01-23T00:56:27.232Z,59.53
2019-01-23T00:58:57.568Z,55.67
2019-01-23T01:01:28.143Z,58.87
2019-01-23T01:03:58.525Z,98.40
2019-01-23T01:06:46.288Z,57.17
2019-01-23T01:12:30.551Z,87.37
2019-01-23T01:15:03.498Z,59.17
2019-01-23T01:18:06.883Z,55.57
2019-01-23T01:20:55.487Z,94.07
2019-01-23T01:23:25.896Z,64.90
2019-01-23T01:26:14.002Z,54.00
2019-01-23T01:28:56.277Z,95.23
2019-01-23T01:31:26.804Z,58.27
2019-01-23T01:34:21.408Z,58.27
2019-01-23T01:36:51.950Z,57.37
2019-01-23T01:39:22.411Z,90.17
2019-01-23T01:42:06.573Z,53.90
2019-01-23T01:44:28.123Z,55.87
2019-01-23T01:47:10.143Z,56.87
2019-01-23T01:49:40.262Z,55.33
2019-01-23T01:52:10.836Z,91.87
2019-01-23T01:54:41.346Z,57.07
2019-01-23T01:57:12.120Z,87.47
2019-01-23T01:59:45.654Z,56.80
2019-01-23T02:02:16.143Z,54.40
2019-01-23T02:04:48.738Z,55.37
2019-01-23T02:07:19.159Z,60.13
2019-01-23T02:09:49.797Z,59.00
2019-01-23T02:12:20.280Z,62.20
2019-01-23T02:14:50.962Z,103.60
2019-01-23T02:17:21.326Z,54.80
2019-01-23T02:19:51.786Z,55.60
2019-01-23T02:22:22.239Z,53.47
2019-01-23T02:24:55.592Z,61.50
2019-01-23T02:27:26.076Z,88.03
2019-01-23T02:29:56.453Z,54.97
2019-01-23T02:32:26.821Z,63.40
2019-01-23T02:34:57.781Z,54.90
2019-01-23T02:37:31.150Z,57.57
2019-01-23T02:40:01.619Z,57.93
2019-01-23T02:42:32.585Z,58.10
2019-01-23T02:45:02.933Z,57.17
2019-01-23T02:47:33.640Z,51.27
2019-01-23T02:50:04.417Z,54.93
2019-01-23T02:52:34.823Z,52.77
2019-01-23T02:55:06.331Z,55.83
2019-01-23T02:57:36.971Z,54.97
2019-01-23T03:00:11.398Z,57.90
2019-01-23T03:02:42.271Z,58.07
2019-01-23T03:05:16.164Z,56.83
2019-01-23T03:07:46.599Z,52.83
2019-01-23T03:10:20.102Z,57.83
2019-01-23T03:12:52.432Z,52.20
2019-01-23T03:15:22.948Z,55.70
2019-01-23T03:17:53.788Z,57.87
2019-01-23T03:20:24.223Z,60.37
2019-01-23T03:22:54.792Z,57.83
2019-01-23T03:25:25.204Z,58.27
2019-01-23T03:27:56.104Z,57.13
2019-01-23T03:30:28.656Z,58.00
2019-01-23T03:32:59.626Z,60.13
2019-01-23T03:35:30.229Z,62.97
2019-01-23T03:38:00.597Z,51.57
2019-01-23T03:40:33.225Z,65.00
2019-01-23T03:43:03.678Z,69.07
2019-01-23T03:45:36.822Z,61.27
2019-01-23T03:48:09.577Z,56.27
2019-01-23T03:50:39.991Z,58.13
2019-01-23T03:53:10.412Z,58.10
2019-01-23T03:55:40.855Z,62.63
2019-01-23T03:58:11.376Z,58.10
2019-01-23T04:00:41.757Z,62.60
2019-01-23T04:03:12.142Z,57.37
2019-01-23T04:05:42.510Z,65.67
2019-01-23T04:08:12.933Z,61.43
2019-01-23T04:10:43.304Z,62.97
2019-01-23T04:13:13.789Z,68.30
2019-01-23T04:15:44.732Z,71.90
2019-01-23T04:18:15.498Z,67.07
2019-01-23T04:20:45.983Z,67.50
2019-01-23T04:23:16.421Z,62.70
2019-01-23T04:25:53.783Z,66.20
2019-01-23T04:28:21.079Z,61.30
2019-01-23T04:30:51.629Z,66.87
2019-01-23T04:33:22.048Z,57.00
2019-01-23T04:35:52.887Z,66.20
2019-01-23T04:38:25.742Z,62.03
2019-01-23T04:40:56.555Z,61.10
2019-01-23T04:43:29.902Z,57.47
2019-01-23T04:46:00.261Z,70.83
2019-01-23T04:48:30.799Z,64.60
2019-01-23T04:51:23.178Z,60.00
2019-01-23T04:56:52.654Z,68.97
2019-01-23T04:59:23.152Z,70.70
2019-01-23T05:01:53.548Z,69.30
2019-01-23T05:04:23.953Z,71.33
2019-01-23T05:06:54.405Z,69.87
2019-01-23T05:09:24.813Z,77.37
2019-01-23T05:11:55.447Z,104.20
2019-01-23T05:14:26.392Z,86.83
2019-01-23T05:16:56.679Z,136.23
2019-01-23T05:19:29.148Z,137.63
2019-01-23T05:22:00.251Z,91.60
2019-01-23T05:24:35.450Z,75.83
2019-01-23T05:27:06.095Z,73.43
2019-01-23T05:29:38.817Z,69.77
2019-01-23T05:32:09.249Z,65.93
2019-01-23T05:34:39.983Z,71.67
2019-01-23T05:37:10.771Z,73.57
2019-01-23T05:39:41.155Z,77.90
2019-01-23T05:42:12.059Z,71.40
2019-01-23T05:44:42.693Z,72.20
2019-01-23T05:47:13.155Z,66.37
2019-01-23T05:49:46.930Z,63.00
2019-01-23T05:52:17.453Z,67.33
2019-01-23T05:54:55.934Z,71.17
2019-01-23T05:57:28.640Z,73.70
2019-01-23T06:00:02.390Z,67.90
2019-01-23T06:02:34.056Z,73.33
2019-01-23T06:05:05.333Z,71.13
2019-01-23T06:07:36.292Z,68.90
2019-01-23T06:10:09.007Z,68.13
2019-01-23T06:12:41.310Z,77.90
2019-01-23T06:15:12.670Z,70.47
2019-01-23T06:17:45.340Z,75.77
2019-01-23T06:20:19.794Z,72.63
2019-01-23T06:22:52.075Z,75.10
2019-01-23T06:25:22.901Z,71.37
2019-01-23T06:27:55.225Z,70.93
2019-01-23T06:30:31.274Z,73.43
2019-01-23T06:33:01.832Z,71.97
2019-01-23T06:35:32.110Z,77.47
2019-01-23T06:38:02.498Z,82.47
2019-01-23T06:40:32.894Z,77.53
2019-01-23T06:43:03.606Z,79.70
2019-01-23T06:45:34.016Z,81.50
2019-01-23T06:48:04.590Z,82.23
2019-01-23T06:50:34.936Z,77.73
2019-01-23T06:53:06.729Z,79.23
2019-01-23T06:55:37.234Z,94.77
2019-01-23T06:58:07.600Z,92.60
2019-01-23T07:00:37.948Z,81.13
2019-01-23T07:03:11.425Z,98.63
2019-01-23T07:05:42.431Z,92.80
2019-01-23T07:08:12.835Z,80.27
2019-01-23T07:10:43.286Z,98.97
2019-01-23T07:13:13.690Z,101.93
2019-01-23T07:15:44.140Z,100.13
2019-01-23T07:18:14.523Z,110.53
2019-01-23T07:20:44.988Z,102.17
2019-01-23T07:23:16.008Z,104.30
2019-01-23T07:25:48.609Z,102.77
2019-01-23T07:28:18.841Z,101.20
2019-01-23T07:30:49.173Z,102.03
2019-01-23T07:33:21.757Z,112.97
2019-01-23T07:35:52.407Z,96.43
2019-01-23T07:38:23.166Z,99.97
2019-01-23T07:40:54.022Z,114.20
2019-01-23T07:43:24.723Z,106.13
2019-01-23T07:45:55.354Z,96.57
2019-01-23T07:48:37.490Z,103.17
2019-01-23T07:51:08.004Z,110.60
2019-01-23T07:53:38.453Z,111.50
2019-01-23T07:56:09.805Z,107.47
2019-01-23T07:58:42.385Z,105.90
2019-01-23T08:01:13.454Z,112.90
2019-01-23T08:03:44.150Z,111.97
2019-01-23T08:06:14.696Z,177.70
2019-01-23T08:08:51.307Z,114.33
2019-01-23T08:11:22.387Z,107.07
2019-01-23T08:13:53.309Z,103.87
2019-01-23T08:16:24.330Z,111.00
2019-01-23T08:18:57.255Z,111.97
2019-01-23T08:21:29.068Z,111.60
2019-01-23T08:24:03.297Z,109.50
2019-01-23T08:26:33.964Z,117.20
2019-01-23T08:29:04.452Z,114.33
2019-01-23T08:31:39.606Z,117.40
2019-01-23T08:34:10.197Z,107.50
2019-01-23T08:36:43.182Z,109.83
2019-01-23T08:39:20.677Z,107.53
2019-01-23T08:41:51.079Z,110.97
2019-01-23T08:44:23.743Z,109.37
2019-01-23T08:46:55.072Z,109.50
2019-01-23T08:49:25.695Z,115.50
2019-01-23T08:51:57.458Z,117.47
2019-01-23T08:54:28.136Z,106.20
2019-01-23T08:57:08.058Z,105.53
2019-01-23T08:59:42.033Z,119.67
2019-01-23T09:02:14.219Z,102.10
2019-01-23T09:04:57.066Z,114.07
2019-01-23T09:07:54.095Z,162.27
2019-01-23T09:10:26.054Z,111.37
2019-01-23T09:12:56.925Z,171.67
2019-01-23T09:15:28.880Z,101.40
2019-01-23T09:18:10.245Z,192.10
2019-01-23T09:20:46.550Z,121.47
2019-01-23T09:23:22.665Z,124.20
2019-01-23T09:26:25.757Z,101.60
2019-01-23T09:42:41.546Z,100.17
2019-01-23T09:46:18.628Z,103.00
2019-01-23T09:49:52.909Z,99.40
2019-01-23T09:53:00.324Z,105.47
2019-01-23T09:55:32.638Z,102.90
2019-01-23T09:58:42.920Z,103.17
2019-01-23T10:01:23.219Z,103.50
2019-01-23T10:03:54.259Z,96.53
2019-01-23T10:06:28.832Z,97.03
2019-01-23T10:09:35.587Z,93.50
2019-01-23T10:12:19.531Z,100.27
2019-01-23T10:15:41.932Z,89.73
2019-01-23T10:19:01.774Z,98.87
2019-01-23T10:21:56.876Z,90.83
2019-01-23T10:24:36.039Z,94.47
2019-01-23T10:27:07.737Z,89.60
2019-01-23T10:29:39.537Z,90.83
2019-01-23T10:32:11.149Z,89.83
2019-01-23T10:34:42.259Z,99.40
2019-01-23T10:37:24.790Z,90.60
2019-01-23T10:39:55.745Z,91.13
2019-01-23T10:42:26.917Z,96.27
2019-01-23T10:45:01.256Z,94.03
2019-01-23T10:47:34.792Z,89.90
2019-01-23T10:50:25.946Z,99.27
2019-01-23T10:52:55.191Z,97.40
2019-01-23T10:55:27.350Z,93.93
2019-01-23T10:58:02.704Z,91.83
2019-01-23T11:00:41.235Z,96.80
2019-01-23T11:03:26.515Z,97.93
2019-01-23T11:05:56.931Z,92.00
2019-01-23T11:08:27.737Z,89.70
2019-01-23T11:11:03.385Z,93.70
2019-01-23T11:13:33.917Z,92.20
2019-01-23T11:16:04.392Z,89.17
2019-01-23T11:18:37.193Z,94.93
2019-01-23T11:21:12.498Z,91.83
2019-01-23T11:23:49.736Z,87.17
2019-01-23T11:26:20.300Z,92.47
2019-01-23T11:29:02.377Z,85.53
2019-01-23T11:31:39.991Z,89.77
2019-01-23T11:34:14.336Z,84.90
2019-01-23T11:36:45.974Z,83.60
2019-01-23T11:39:16.840Z,91.10
2019-01-23T11:41:47.639Z,80.73
2019-01-23T11:44:30.943Z,77.07
2019-01-23T11:47:01.507Z,76.67
2019-01-23T11:49:32.172Z,86.63
2019-01-23T11:52:02.659Z,71.83
2019-01-23T11:54:33.508Z,85.33
2019-01-23T11:57:05.389Z,78.83
2019-01-23T11:59:36.177Z,72.23
2019-01-23T12:02:07.919Z,77.33
2019-01-23T12:04:38.301Z,76.60
2019-01-23T12:07:11.579Z,81.93
2019-01-23T12:09:42.917Z,80.83
2019-01-23T12:12:17.376Z,79.63
2019-01-23T12:14:53.739Z,86.13
2019-01-23T12:17:25.080Z,99.93
2019-01-23T12:19:55.580Z,97.30
2019-01-23T12:22:26.340Z,95.07
2019-01-23T12:24:57.955Z,101.63
2019-01-23T12:27:43.725Z,103.03
2019-01-23T12:30:37.575Z,96.20
2019-01-23T12:33:11.349Z,99.10
2019-01-23T12:35:46.186Z,100.93
2019-01-23T12:38:19.878Z,97.30
2019-01-23T12:40:54.140Z,101.73
2019-01-23T12:43:29.283Z,105.10
2019-01-23T12:46:01.713Z,110.27
2019-01-23T12:48:49.437Z,106.50
2019-01-23T12:51:20.194Z,106.80
2019-01-23T12:53:51.128Z,107.47
2019-01-23T12:56:25.462Z,108.00
2019-01-23T12:58:58.519Z,109.73
2019-01-23T13:01:30.620Z,106.27
2019-01-23T13:04:01.349Z,102.27
2019-01-23T13:06:43.138Z,110.43
2019-01-23T13:09:19.823Z,110.70
2019-01-23T13:12:00.509Z,115.87
2019-01-23T13:14:31.623Z,106.30
2019-01-23T13:17:05.161Z,123.67
2019-01-23T13:19:35.656Z,115.60
2019-01-23T13:22:09.060Z,125.27
2019-01-23T13:24:39.743Z,108.13
2019-01-23T13:27:11.793Z,122.30
2019-01-23T13:29:46.261Z,118.07
2019-01-23T13:32:47.567Z,113.47
2019-01-23T13:35:34.209Z,116.20
2019-01-23T13:38:17.609Z,120.03
2019-01-23T13:41:30.244Z,122.93
2019-01-23T13:44:12.665Z,127.37
2019-01-23T13:47:11.502Z,135.10
2019-01-23T13:50:18.333Z,128.33
2019-01-23T13:52:55.605Z,145.82
2019-01-23T13:55:40.781Z,138.70
2019-01-23T13:58:41.508Z,135.30
2019-01-23T14:01:06.991Z,144.97
2019-01-23T14:03:39.997Z,138.53
2019-01-23T14:06:11.067Z,136.40
2019-01-23T14:09:09.900Z,148.33
2019-01-23T14:11:54.104Z,126.00
2019-01-23T14:14:28.575Z,138.30
2019-01-23T14:17:51.215Z,146.67
2019-01-23T14:20:35.172Z,137.77
2019-01-23T14:23:31.096Z,137.03
2019-01-23T14:26:32.788Z,129.40
2019-01-23T14:29:10.228Z,129.30
2019-01-23T14:32:03.350Z,140.17
2019-01-23T14:34:26.688Z,135.23
2019-01-23T14:36:57.502Z,130.20
2019-01-23T14:39:31.448Z,138.40
2019-01-23T14:42:21.003Z,138.00
2019-01-23T14:45:20.302Z,151.17
2019-01-23T14:48:50.198Z,140.83
2019-01-23T14:52:40.955Z,146.13
2019-01-23T14:55:47.966Z,140.53
2019-01-23T14:58:16.344Z,151.20
2019-01-23T15:01:02.130Z,143.60
2019-01-23T15:04:49.350Z,156.53
2019-01-23T15:07:25.502Z,136.90
2019-01-23T15:10:10.550Z,144.07
2019-01-23T15:12:51.064Z,163.67
2019-01-23T15:15:26.813Z,151.80
2019-01-23T15:17:58.285Z,160.03
2019-01-23T15:20:40.194Z,161.70
2019-01-23T15:23:11.171Z,157.67
2019-01-23T15:25:42.101Z,167.97
2019-01-23T15:28:14.453Z,167.90
2019-01-23T15:30:45.137Z,184.43
2019-01-23T15:33:15.837Z,181.43
2019-01-23T15:35:48.964Z,192.40
2019-01-23T15:38:25.941Z,177.77
2019-01-23T15:41:36.063Z,194.57
2019-01-23T15:44:07.343Z,187.47
2019-01-23T15:46:41.409Z,174.83
2019-01-23T15:50:03.743Z,195.40
2019-01-23T15:52:50.735Z,190.17
2019-01-23T15:55:43.169Z,181.67
2019-01-23T15:58:17.642Z,184.03
2019-01-23T16:00:54.224Z,183.47
2019-01-23T16:03:39.739Z,188.37
2019-01-23T16:06:15.841Z,190.73
2019-01-23T16:08:46.170Z,182.37
2019-01-23T16:12:25.635Z,189.83
2019-01-23T16:15:08.763Z,258.43
2019-01-23T16:18:39.516Z,190.33
2019-01-23T16:21:45.732Z,174.53
2019-01-23T16:24:21.221Z,174.17
2019-01-23T16:27:13.305Z,185.47
2019-01-23T16:30:09.584Z,170.03
2019-01-23T16:33:45.752Z,172.37
2019-01-23T16:40:11.957Z,192.97
2019-01-23T16:43:24.931Z,185.10
2019-01-23T16:47:02.098Z,171.83
2019-01-23T16:49:39.943Z,159.80
2019-01-23T16:52:17.326Z,150.97
2019-01-23T16:54:58.261Z,149.30
2019-01-23T16:57:29.601Z,220.67
2019-01-23T17:00:01.938Z,150.30
2019-01-23T17:02:38.706Z,135.23
2019-01-23T17:05:15.514Z,152.00
2019-01-23T17:07:49.751Z,139.10
2019-01-23T17:10:22.924Z,142.97
2019-01-23T17:12:54.174Z,213.77
2019-01-23T17:15:27.752Z,132.13
2019-01-23T17:18:01.592Z,150.50
2019-01-23T17:21:02.661Z,146.63
2019-01-23T17:23:42.334Z,125.17
2019-01-23T17:26:19.660Z,115.77
2019-01-23T17:28:56.755Z,115.17
2019-01-23T17:31:37.232Z,191.03
2019-01-23T17:34:09.401Z,129.60
2019-01-23T17:36:43.142Z,111.93
2019-01-23T17:39:33.735Z,113.20
2019-01-23T17:42:12.391Z,179.33
2019-01-23T17:44:45.659Z,113.27
2019-01-23T17:47:16.495Z,120.37
2019-01-23T17:49:51.158Z,108.60
2019-01-23T17:55:38.319Z,98.43
2019-01-23T17:58:12.906Z,88.70
2019-01-23T18:01:03.505Z,97.37
2019-01-23T18:03:44.638Z,99.47
2019-01-23T18:06:24.569Z,100.77
2019-01-23T18:09:08.171Z,93.37
2019-01-23T18:11:41.095Z,98.97
2019-01-23T18:14:30.828Z,93.47
2019-01-23T18:17:15.564Z,91.77
2019-01-23T18:19:46.495Z,100.23
2019-01-23T18:22:19.335Z,86.23
2019-01-23T18:24:53.934Z,94.37
2019-01-23T18:27:28.142Z,85.83
2019-01-23T18:30:08.900Z,85.37
2019-01-23T18:32:40.963Z,97.77
2019-01-23T18:35:47.342Z,88.33
2019-01-23T18:39:06.399Z,81.20
2019-01-23T18:42:29.747Z,91.10
2019-01-23T18:45:37.659Z,94.67
2019-01-23T18:49:14.312Z,93.80
2019-01-23T18:52:04.112Z,87.93
2019-01-23T18:54:34.765Z,93.30
2019-01-23T18:57:05.634Z,96.47
2019-01-23T18:59:37.840Z,84.13
2019-01-23T19:03:07.186Z,95.07
2019-01-23T19:09:15.713Z,90.70
2019-01-23T19:11:46.500Z,88.53
2019-01-23T19:14:24.593Z,79.57
2019-01-23T19:16:55.607Z,86.67
2019-01-23T19:19:33.984Z,85.60
2019-01-23T19:22:05.864Z,97.43
2019-01-23T19:24:51.137Z,87.63
2019-01-23T19:27:28.752Z,75.13
2019-01-23T19:30:09.176Z,99.83
2019-01-23T19:32:36.637Z,142.07
2019-01-23T19:35:15.037Z,89.30
2019-01-23T19:37:52.409Z,79.57
2019-01-23T19:40:24.083Z,135.00
2019-01-23T19:42:56.894Z,89.30
2019-01-23T19:45:28.674Z,80.37
2019-01-23T19:47:59.419Z,83.40
2019-01-23T19:50:32.183Z,85.20
2019-01-23T19:53:03.208Z,89.43
2019-01-23T19:55:34.046Z,89.30
2019-01-23T19:58:06.411Z,76.33
2019-01-23T20:00:39.815Z,74.93
2019-01-23T20:03:10.412Z,113.17
2019-01-23T20:05:40.968Z,87.10
2019-01-23T20:08:11.719Z,85.87
2019-01-23T20:10:42.539Z,82.97
2019-01-23T20:13:15.166Z,83.53
2019-01-23T20:15:47.737Z,87.87
2019-01-23T20:18:18.330Z,76.23
2019-01-23T20:20:48.839Z,84.00
2019-01-23T20:23:19.590Z,80.17
2019-01-23T20:25:53.056Z,77.87
2019-01-23T20:28:26.567Z,114.10
2019-01-23T20:30:58.060Z,78.87
2019-01-23T20:33:28.544Z,75.13
2019-01-23T20:36:02.019Z,79.47
2019-01-23T20:38:32.417Z,77.53
2019-01-23T20:41:02.826Z,78.27
2019-01-23T20:43:33.230Z,74.97
2019-01-23T20:46:37.737Z,62.93
2019-01-23T20:49:25.046Z,76.07
2019-01-23T20:51:46.759Z,77.13
2019-01-23T20:54:18.767Z,76.23
2019-01-23T20:57:01.443Z,77.87
2019-01-23T20:59:38.529Z,64.07
2019-01-23T21:02:09.859Z,71.60
2019-01-23T21:04:43.705Z,75.93
2019-01-23T21:07:14.626Z,63.53
2019-01-23T21:09:47.340Z,67.73
2019-01-23T21:12:21.006Z,72.93
2019-01-23T21:14:53.489Z,65.13
2019-01-23T21:17:25.688Z,66.53
2019-01-23T21:19:59.318Z,60.83
2019-01-23T21:22:34.631Z,72.40
2019-01-23T21:25:10.037Z,74.33
2019-01-23T21:27:42.333Z,65.00
2019-01-23T21:30:21.975Z,69.10
2019-01-23T21:36:21.489Z,68.07
2019-01-23T21:39:43.768Z,67.93
2019-01-23T21:42:19.521Z,64.60
2019-01-23T21:45:31.831Z,63.60
2019-01-23T21:48:06.416Z,65.27
2019-01-23T21:50:37.305Z,65.60
2019-01-23T21:53:19.712Z,67.03
2019-01-23T21:56:02.265Z,62.83
2019-01-23T21:59:20.097Z,84.53
2019-01-23T22:02:05.484Z,72.77
2019-01-23T22:05:02.737Z,62.37
2019-01-23T22:08:35.215Z,66.57
2019-01-23T22:14:27.515Z,62.87
2019-01-23T22:17:20.605Z,70.37
2019-01-23T22:19:56.302Z,74.37
2019-01-23T22:22:27.244Z,69.13
2019-01-23T22:25:07.941Z,69.17
2019-01-23T22:27:41.118Z,76.27
2019-01-23T22:30:28.358Z,68.13
2019-01-23T22:33:00.384Z,73.50
2019-01-23T22:35:31.227Z,71.30
2019-01-23T22:38:09.346Z,74.70
2019-01-23T22:40:41.001Z,73.23
2019-01-23T22:43:15.148Z,75.47
2019-01-23T22:45:45.051Z,75.97
2019-01-23T22:48:17.379Z,72.20
2019-01-23T22:50:51.070Z,79.40
2019-01-23T22:53:21.592Z,76.50
2019-01-23T22:55:59.649Z,76.57
2019-01-23T22:58:32.716Z,72.90
2019-01-23T23:01:33.679Z,76.13
2019-01-23T23:04:10.867Z,79.60
2019-01-23T23:06:36.604Z,70.87
2019-01-23T23:09:10.846Z,70.50
2019-01-23T23:11:41.361Z,68.00
2019-01-23T23:14:11.736Z,70.63
2019-01-23T23:16:42.287Z,75.27
2019-01-23T23:19:12.998Z,84.10
2019-01-23T23:21:43.360Z,72.50
2019-01-23T23:24:13.793Z,71.40
2019-01-23T23:26:44.689Z,74.10
2019-01-23T23:29:15.183Z,79.47
2019-01-23T23:31:45.561Z,68.80
2019-01-23T23:34:17.774Z,80.20
2019-01-23T23:36:48.203Z,71.73
2019-01-23T23:39:19.800Z,75.30
2019-01-23T23:41:51.854Z,77.47
2019-01-23T23:44:22.366Z,71.57
2019-01-23T23:46:52.788Z,76.43
2019-01-23T23:49:23.244Z,64.43
2019-01-23T23:51:53.850Z,68.17
2019-01-23T23:54:26.064Z,69.30
2019-01-23T23:56:56.545Z,68.20
2019-01-23T23:59:26.977Z,70.90
